createdAt,value
2018-05-31T00:00:52.926Z,75.60
2018-05-31T00:03:21.161Z,75.90
2018-05-31T00:05:49.406Z,75.60
2018-05-31T00:08:16.854Z,75.50
2018-05-31T00:10:44.338Z,75.30
2018-05-31T00:13:11.795Z,75.10
2018-05-31T00:15:39.276Z,75.20
2018-05-31T00:18:06.819Z,75.30
2018-05-31T00:20:34.292Z,75.20
2018-05-31T00:23:01.841Z,74.90
2018-05-31T00:25:29.406Z,75.00
2018-05-31T00:27:56.872Z,75.00
2018-05-31T00:30:24.333Z,74.80
2018-05-31T00:32:51.797Z,74.50
2018-05-31T00:35:19.261Z,74.30
2018-05-31T00:37:46.734Z,74.50
2018-05-31T00:40:14.208Z,74.70
2018-05-31T00:42:41.646Z,75.00
2018-05-31T00:45:09.110Z,74.50
2018-05-31T00:47:36.572Z,74.60
2018-05-31T00:50:04.021Z,74.70
2018-05-31T00:52:31.510Z,74.50
2018-05-31T00:54:58.957Z,74.90
2018-05-31T00:57:26.522Z,75.10
2018-05-31T00:59:53.974Z,74.60
2018-05-31T01:02:21.422Z,74.50
2018-05-31T01:04:48.914Z,74.70
2018-05-31T01:07:16.356Z,75.00
2018-05-31T01:09:43.818Z,74.40
2018-05-31T01:12:11.272Z,74.50
2018-05-31T01:14:38.762Z,74.60
2018-05-31T01:17:06.227Z,74.70
2018-05-31T01:19:33.694Z,74.80
2018-05-31T01:22:01.151Z,75.00
2018-05-31T01:24:28.713Z,74.60
2018-05-31T01:26:56.273Z,74.80
2018-05-31T01:29:24.375Z,74.90
2018-05-31T01:31:51.833Z,75.20
2018-05-31T01:34:19.289Z,75.40
2018-05-31T01:36:46.753Z,75.80
2018-05-31T01:39:17.131Z,75.50
2018-05-31T01:41:44.589Z,75.60
2018-05-31T01:44:12.062Z,75.50
2018-05-31T01:46:39.553Z,75.80
2018-05-31T01:49:06.991Z,75.80
2018-05-31T01:51:34.505Z,75.90
2018-05-31T01:54:01.974Z,76.00
2018-05-31T01:56:30.241Z,75.90
2018-05-31T01:58:57.690Z,75.90
2018-05-31T02:01:25.154Z,76.00
2018-05-31T02:03:52.622Z,75.90
2018-05-31T02:06:20.078Z,76.00
2018-05-31T02:08:47.649Z,76.10
2018-05-31T02:11:15.097Z,76.00
2018-05-31T02:13:42.677Z,76.10
2018-05-31T02:16:10.117Z,76.30
2018-05-31T02:18:37.563Z,76.40
2018-05-31T02:21:05.060Z,76.30
2018-05-31T02:23:32.530Z,76.40
2018-05-31T02:26:00.087Z,76.50
2018-05-31T02:28:27.548Z,76.80
2018-05-31T02:30:54.991Z,76.90
2018-05-31T02:33:22.467Z,76.50
2018-05-31T02:35:49.930Z,76.50
2018-05-31T02:38:17.395Z,76.30
2018-05-31T02:40:44.850Z,76.60
2018-05-31T02:43:12.421Z,76.60
2018-05-31T02:45:39.885Z,76.50
2018-05-31T02:48:07.360Z,76.40
2018-05-31T02:50:34.806Z,76.80
2018-05-31T02:53:02.263Z,76.80
2018-05-31T02:55:29.739Z,76.70
2018-05-31T02:57:57.521Z,76.80
2018-05-31T03:00:25.783Z,76.40
2018-05-31T03:02:53.225Z,76.40
2018-05-31T03:05:20.693Z,76.40
2018-05-31T03:07:48.233Z,76.30
2018-05-31T03:10:15.674Z,76.20
2018-05-31T03:12:43.099Z,76.40
2018-05-31T03:15:10.566Z,76.50
2018-05-31T03:17:38.131Z,76.50
2018-05-31T03:20:05.587Z,76.50
2018-05-31T03:22:33.045Z,76.40
2018-05-31T03:25:00.512Z,76.40
2018-05-31T03:27:27.954Z,76.50
2018-05-31T03:29:55.422Z,76.30
2018-05-31T03:32:22.901Z,76.30
2018-05-31T03:34:50.359Z,76.60
2018-05-31T03:37:17.838Z,76.70
2018-05-31T03:39:45.293Z,76.70
2018-05-31T03:42:12.754Z,77.00
2018-05-31T03:44:40.222Z,77.00
2018-05-31T03:47:07.671Z,76.90
2018-05-31T03:49:35.112Z,76.70
2018-05-31T03:52:02.586Z,76.70
2018-05-31T03:54:30.041Z,76.80
2018-05-31T03:56:57.501Z,77.00
2018-05-31T03:59:24.962Z,77.00
2018-05-31T04:01:52.410Z,77.00
2018-05-31T04:04:19.888Z,76.90
2018-05-31T04:06:47.341Z,77.00
2018-05-31T04:09:14.811Z,76.80
2018-05-31T04:11:42.303Z,76.70
2018-05-31T04:14:09.766Z,76.90
2018-05-31T04:16:37.229Z,76.60
2018-05-31T04:19:04.679Z,76.90
2018-05-31T04:21:32.259Z,77.10
2018-05-31T04:23:59.697Z,77.40
2018-05-31T04:26:27.170Z,77.60
2018-05-31T04:28:54.647Z,76.80
2018-05-31T04:31:22.204Z,77.60
2018-05-31T04:33:49.666Z,77.80
2018-05-31T04:36:17.106Z,77.60
2018-05-31T04:38:44.577Z,76.70
2018-05-31T04:41:12.054Z,77.10
2018-05-31T04:43:39.510Z,76.80
2018-05-31T04:46:06.980Z,76.90
2018-05-31T04:48:34.450Z,77.00
2018-05-31T04:51:02.006Z,77.10
2018-05-31T04:53:29.496Z,76.90
2018-05-31T04:55:56.914Z,76.80
2018-05-31T04:58:24.377Z,77.00
2018-05-31T05:00:51.830Z,77.00
2018-05-31T05:03:19.327Z,77.20
2018-05-31T05:05:46.769Z,77.40
2018-05-31T05:08:14.233Z,77.90
2018-05-31T05:10:41.707Z,77.30
2018-05-31T05:13:09.169Z,77.30
2018-05-31T05:15:36.640Z,77.30
2018-05-31T05:18:04.086Z,77.50
2018-05-31T05:20:31.554Z,77.60
2018-05-31T05:22:59.028Z,77.20
2018-05-31T05:25:26.491Z,77.90
2018-05-31T05:27:53.930Z,76.90
2018-05-31T05:30:21.403Z,76.80
2018-05-31T05:32:48.868Z,76.60
2018-05-31T05:35:16.431Z,76.80
2018-05-31T05:37:43.999Z,76.60
2018-05-31T05:40:11.469Z,76.80
2018-05-31T05:42:38.947Z,76.60
2018-05-31T05:45:06.487Z,76.40
2018-05-31T05:47:33.951Z,76.00
2018-05-31T05:50:01.401Z,76.10
2018-05-31T05:52:28.870Z,75.90
2018-05-31T05:54:56.337Z,76.50
2018-05-31T05:57:23.898Z,76.00
2018-05-31T05:59:51.351Z,75.50
2018-05-31T06:02:18.834Z,75.10
2018-05-31T06:04:46.390Z,75.00
2018-05-31T06:07:13.838Z,75.30
2018-05-31T06:09:41.307Z,74.90
2018-05-31T06:12:08.777Z,74.60
2018-05-31T06:14:36.241Z,74.40
2018-05-31T06:17:03.811Z,74.70
2018-05-31T06:19:31.283Z,75.50
2018-05-31T06:21:58.802Z,76.40
2018-05-31T06:24:26.223Z,76.40
2018-05-31T06:26:53.658Z,76.90
2018-05-31T06:29:21.114Z,77.70
2018-05-31T06:31:48.694Z,76.60
2018-05-31T06:34:16.163Z,75.80
2018-05-31T06:36:43.719Z,76.10
2018-05-31T06:39:11.170Z,77.60
2018-05-31T06:41:38.629Z,76.50
2018-05-31T06:44:06.083Z,75.40
2018-05-31T06:46:33.550Z,75.00
2018-05-31T06:49:01.032Z,73.90
2018-05-31T06:51:28.583Z,73.30
2018-05-31T06:53:56.143Z,74.50
2018-05-31T06:56:23.607Z,73.90
2018-05-31T06:58:51.045Z,74.00
2018-05-31T07:01:18.526Z,73.50
2018-05-31T07:03:45.962Z,74.10
2018-05-31T07:06:13.461Z,72.80
2018-05-31T07:08:40.941Z,72.60
2018-05-31T07:11:08.412Z,72.30
2018-05-31T07:13:35.854Z,72.00
2018-05-31T07:16:03.321Z,71.70
2018-05-31T07:18:30.794Z,72.90
2018-05-31T07:20:58.264Z,72.20
2018-05-31T07:23:25.710Z,71.30
2018-05-31T07:25:53.262Z,72.20
2018-05-31T07:28:20.742Z,71.60
2018-05-31T07:30:48.204Z,71.20
2018-05-31T07:33:15.757Z,70.20
2018-05-31T07:35:43.309Z,70.20
2018-05-31T07:38:10.781Z,69.80
2018-05-31T07:40:38.297Z,69.40
2018-05-31T07:43:06.525Z,69.90
2018-05-31T07:45:34.005Z,69.80
2018-05-31T07:48:01.445Z,68.80
2018-05-31T07:50:28.914Z,68.40
2018-05-31T07:52:56.376Z,68.30
2018-05-31T07:55:23.815Z,67.60
2018-05-31T07:57:51.278Z,68.70
2018-05-31T08:00:18.770Z,69.10
2018-05-31T08:02:46.334Z,67.90
2018-05-31T08:05:13.889Z,68.60
2018-05-31T08:07:41.342Z,67.80
2018-05-31T08:10:08.806Z,66.50
2018-05-31T08:12:36.268Z,67.80
2018-05-31T08:15:03.853Z,67.60
2018-05-31T08:17:31.335Z,66.60
2018-05-31T08:19:58.782Z,66.30
2018-05-31T08:22:26.230Z,66.10
2018-05-31T08:24:53.694Z,64.80
2018-05-31T08:27:21.142Z,64.60
2018-05-31T08:29:48.638Z,63.70
2018-05-31T08:32:16.086Z,64.40
2018-05-31T08:34:43.557Z,64.20
2018-05-31T08:37:11.114Z,64.00
2018-05-31T08:39:38.574Z,62.80
2018-05-31T08:42:06.139Z,62.60
2018-05-31T08:44:33.608Z,60.30
2018-05-31T08:47:01.171Z,62.00
2018-05-31T08:49:28.633Z,61.10
2018-05-31T08:51:56.098Z,61.10
2018-05-31T08:54:23.557Z,62.10
2018-05-31T08:56:51.118Z,60.10
2018-05-31T08:59:18.590Z,58.30
2018-05-31T09:01:46.040Z,58.90
2018-05-31T09:04:14.326Z,58.60
2018-05-31T09:06:41.770Z,58.60
2018-05-31T09:09:09.250Z,58.70
2018-05-31T09:11:36.705Z,58.50
2018-05-31T09:14:04.174Z,57.70
2018-05-31T09:16:31.738Z,56.90
2018-05-31T09:18:59.183Z,56.90
2018-05-31T09:21:27.390Z,55.50
2018-05-31T09:23:54.838Z,55.70
2018-05-31T09:26:22.410Z,56.70
2018-05-31T09:28:49.891Z,56.80
2018-05-31T09:31:17.330Z,55.30
2018-05-31T09:33:44.793Z,57.60
2018-05-31T09:36:12.238Z,57.50
2018-05-31T09:38:39.699Z,55.40
2018-05-31T09:41:07.234Z,55.50
2018-05-31T09:43:34.644Z,56.80
2018-05-31T09:46:02.086Z,56.40
2018-05-31T09:48:29.533Z,55.20
2018-05-31T09:50:56.999Z,56.90
2018-05-31T09:53:24.470Z,53.60
2018-05-31T09:55:52.497Z,53.70
2018-05-31T09:58:19.961Z,52.40
2018-05-31T10:00:47.416Z,54.00
2018-05-31T10:03:14.874Z,55.10
2018-05-31T10:05:42.343Z,55.40
2018-05-31T10:08:09.877Z,54.70
2018-05-31T10:10:37.345Z,54.80
2018-05-31T10:13:04.807Z,52.50
2018-05-31T10:15:32.258Z,53.50
2018-05-31T10:17:59.730Z,52.50
2018-05-31T10:20:27.497Z,52.60
2018-05-31T10:22:54.950Z,51.40
2018-05-31T10:25:22.425Z,52.10
2018-05-31T10:27:49.878Z,51.60
2018-05-31T10:30:17.352Z,51.60
2018-05-31T10:32:44.801Z,50.80
2018-05-31T10:35:12.289Z,51.90
2018-05-31T10:37:39.758Z,49.20
2018-05-31T10:40:07.206Z,50.50
2018-05-31T10:42:34.766Z,49.70
2018-05-31T10:45:02.230Z,50.50
2018-05-31T10:47:29.675Z,50.70
2018-05-31T10:49:57.135Z,50.10
2018-05-31T10:52:24.610Z,50.10
2018-05-31T10:54:52.083Z,49.70
2018-05-31T10:57:19.539Z,51.00
2018-05-31T10:59:47.110Z,50.30
2018-05-31T11:02:14.554Z,50.80
2018-05-31T11:04:42.062Z,49.60
2018-05-31T11:07:09.478Z,49.90
2018-05-31T11:09:36.934Z,51.60
2018-05-31T11:12:04.417Z,50.30
2018-05-31T11:14:31.892Z,49.50
2018-05-31T11:16:59.354Z,49.50
2018-05-31T11:19:26.909Z,50.50
2018-05-31T11:21:54.363Z,49.50
2018-05-31T11:24:21.838Z,50.70
2018-05-31T11:26:49.306Z,49.70
2018-05-31T11:29:16.794Z,50.40
2018-05-31T11:31:44.198Z,50.20
2018-05-31T11:34:11.674Z,50.20
2018-05-31T11:36:39.147Z,49.20
2018-05-31T11:39:06.614Z,50.40
2018-05-31T11:41:34.100Z,50.40
2018-05-31T11:44:01.558Z,48.80
2018-05-31T11:46:28.997Z,50.00
2018-05-31T11:48:56.446Z,48.70
2018-05-31T11:51:24.686Z,47.60
2018-05-31T11:53:52.890Z,49.70
2018-05-31T11:56:20.390Z,49.70
2018-05-31T11:58:47.854Z,49.20
2018-05-31T12:01:15.316Z,49.20
2018-05-31T12:03:42.820Z,49.50
2018-05-31T12:06:10.237Z,49.70
2018-05-31T12:08:37.703Z,49.70
2018-05-31T12:11:05.162Z,50.10
2018-05-31T12:13:32.661Z,50.60
2018-05-31T12:16:00.894Z,50.10
2018-05-31T12:18:28.339Z,50.10
2018-05-31T12:20:55.805Z,50.90
2018-05-31T12:23:23.259Z,50.50
2018-05-31T12:25:50.730Z,51.20
2018-05-31T12:28:18.182Z,52.10
2018-05-31T12:30:45.623Z,51.40
2018-05-31T12:33:13.950Z,52.20
2018-05-31T12:35:41.401Z,52.20
2018-05-31T12:38:08.877Z,52.10
2018-05-31T12:40:36.350Z,52.70
2018-05-31T12:43:03.810Z,52.80
2018-05-31T12:45:31.262Z,53.00
2018-05-31T12:47:58.720Z,53.20
2018-05-31T12:50:26.186Z,54.00
2018-05-31T12:52:53.687Z,54.70
2018-05-31T12:55:21.104Z,55.00
2018-05-31T12:57:48.580Z,55.50
2018-05-31T13:00:16.042Z,56.00
2018-05-31T13:02:43.502Z,56.40
2018-05-31T13:05:10.963Z,56.70
2018-05-31T13:07:38.434Z,56.80
2018-05-31T13:10:08.353Z,57.10
2018-05-31T13:12:35.814Z,57.10
2018-05-31T13:15:03.276Z,57.70
2018-05-31T13:17:30.713Z,58.80
2018-05-31T13:19:58.181Z,61.20
2018-05-31T13:22:25.763Z,62.30
2018-05-31T13:24:53.198Z,63.60
2018-05-31T13:27:20.647Z,62.80
2018-05-31T13:29:48.144Z,64.20
2018-05-31T13:32:15.616Z,64.90
2018-05-31T13:34:43.079Z,65.10
2018-05-31T13:37:10.638Z,66.70
2018-05-31T13:39:38.077Z,67.90
2018-05-31T13:42:05.566Z,68.30
2018-05-31T13:44:33.027Z,68.50
2018-05-31T13:47:00.491Z,69.50
2018-05-31T13:49:27.962Z,69.40
2018-05-31T13:51:55.425Z,69.60
2018-05-31T13:54:22.980Z,69.90
2018-05-31T13:56:50.426Z,70.10
2018-05-31T13:59:18.212Z,70.40
2018-05-31T14:01:45.653Z,70.60
2018-05-31T14:04:13.117Z,71.00
2018-05-31T14:06:40.572Z,71.30
2018-05-31T14:09:08.040Z,72.40
2018-05-31T14:11:35.510Z,72.00
2018-05-31T14:14:02.959Z,73.10
2018-05-31T14:16:30.418Z,72.50
2018-05-31T14:18:57.859Z,72.60
2018-05-31T14:21:26.085Z,71.50
2018-05-31T14:23:53.526Z,71.50
2018-05-31T14:26:20.998Z,71.40
2018-05-31T14:28:48.478Z,71.90
2018-05-31T14:31:15.958Z,73.40
2018-05-31T14:33:43.402Z,72.70
2018-05-31T14:36:10.971Z,72.50
2018-05-31T14:38:38.430Z,72.80
2018-05-31T14:41:05.891Z,73.30
2018-05-31T14:43:33.453Z,73.40
2018-05-31T14:46:00.916Z,73.70
2018-05-31T14:48:28.408Z,73.40
2018-05-31T14:50:55.851Z,73.20
2018-05-31T14:53:23.316Z,73.40
2018-05-31T14:55:50.791Z,72.70
2018-05-31T14:58:19.745Z,72.10
2018-05-31T15:00:47.215Z,72.10
2018-05-31T15:03:14.679Z,72.00
2018-05-31T15:05:42.132Z,71.80
2018-05-31T15:08:09.605Z,71.70
2018-05-31T15:10:37.072Z,71.50
2018-05-31T15:13:04.511Z,70.90
2018-05-31T15:15:31.986Z,71.30
2018-05-31T15:17:59.442Z,69.70
2018-05-31T15:20:26.927Z,70.00
2018-05-31T15:22:54.404Z,68.70
2018-05-31T15:25:21.841Z,68.90
2018-05-31T15:27:49.306Z,68.70
2018-05-31T15:30:16.770Z,68.30
2018-05-31T15:32:44.210Z,68.60
2018-05-31T15:35:11.703Z,69.00
2018-05-31T15:37:39.149Z,68.00
2018-05-31T15:40:06.634Z,67.90
2018-05-31T15:42:34.095Z,68.50
2018-05-31T15:45:01.617Z,68.40
2018-05-31T15:47:29.153Z,67.80
2018-05-31T15:49:56.602Z,67.00
2018-05-31T15:52:24.146Z,67.30
2018-05-31T15:54:51.591Z,67.30
2018-05-31T15:57:19.050Z,67.10
2018-05-31T15:59:46.539Z,67.40
2018-05-31T16:02:13.996Z,67.40
2018-05-31T16:04:41.438Z,67.70
2018-05-31T16:07:08.918Z,67.80
2018-05-31T16:09:36.388Z,68.20
2018-05-31T16:12:03.838Z,67.90
2018-05-31T16:14:31.402Z,68.10
2018-05-31T16:16:58.967Z,68.70
2018-05-31T16:19:26.406Z,67.90
2018-05-31T16:21:53.906Z,68.10
2018-05-31T16:24:21.373Z,68.10
2018-05-31T16:26:48.831Z,68.40
2018-05-31T16:29:16.385Z,67.50
2018-05-31T16:31:43.821Z,67.80
2018-05-31T16:34:11.284Z,67.50
2018-05-31T16:36:38.746Z,67.40
2018-05-31T16:39:06.201Z,67.50
2018-05-31T16:41:33.650Z,68.50
2018-05-31T16:44:01.884Z,67.80
2018-05-31T16:46:29.346Z,67.80
2018-05-31T16:48:56.814Z,67.60
2018-05-31T16:51:24.262Z,67.70
2018-05-31T16:53:51.722Z,67.70
2018-05-31T16:56:19.202Z,67.70
2018-05-31T16:58:46.749Z,67.80
2018-05-31T17:01:14.193Z,68.30
2018-05-31T17:03:41.727Z,68.20
2018-05-31T17:06:09.933Z,68.40
2018-05-31T17:08:37.405Z,68.30
2018-05-31T17:11:04.850Z,68.00
2018-05-31T17:13:32.316Z,67.80
2018-05-31T17:15:59.787Z,67.80
2018-05-31T17:18:27.246Z,67.70
2018-05-31T17:20:54.711Z,67.80
2018-05-31T17:23:22.198Z,67.40
2018-05-31T17:25:49.662Z,67.50
2018-05-31T17:28:17.121Z,67.70
2018-05-31T17:30:44.587Z,67.80
2018-05-31T17:33:12.053Z,67.20
2018-05-31T17:35:39.614Z,68.00
2018-05-31T17:38:07.078Z,67.70
2018-05-31T17:40:34.529Z,67.30
2018-05-31T17:43:02.053Z,67.50
2018-05-31T17:45:29.470Z,67.60
2018-05-31T17:47:56.935Z,67.60
2018-05-31T17:50:24.386Z,67.80
2018-05-31T17:52:51.826Z,68.20
2018-05-31T17:55:19.351Z,68.50
2018-05-31T17:57:46.761Z,68.70
2018-05-31T18:00:14.223Z,68.80
2018-05-31T18:02:41.698Z,68.30
2018-05-31T18:05:09.151Z,67.50
2018-05-31T18:07:36.635Z,68.10
2018-05-31T18:10:04.089Z,68.30
2018-05-31T18:12:32.482Z,68.30
2018-05-31T18:14:59.929Z,68.10
2018-05-31T18:17:27.413Z,67.60
2018-05-31T18:19:54.881Z,68.20
2018-05-31T18:22:22.343Z,67.90
2018-05-31T18:24:49.882Z,68.20
2018-05-31T18:27:17.345Z,68.30
2018-05-31T18:29:44.793Z,68.60
2018-05-31T18:32:12.254Z,68.80
2018-05-31T18:34:39.740Z,68.90
2018-05-31T18:37:07.175Z,69.20
2018-05-31T18:39:34.662Z,69.50
2018-05-31T18:42:02.126Z,70.00
2018-05-31T18:44:29.570Z,70.80
2018-05-31T18:46:57.053Z,71.90
2018-05-31T18:49:24.502Z,71.90
2018-05-31T18:51:51.978Z,71.80
2018-05-31T18:54:19.530Z,72.20
2018-05-31T18:56:46.990Z,71.90
2018-05-31T18:59:14.454Z,71.30
2018-05-31T19:01:41.913Z,71.30
2018-05-31T19:04:09.362Z,71.20
2018-05-31T19:06:36.807Z,71.10
2018-05-31T19:09:04.283Z,70.80
2018-05-31T19:11:31.777Z,70.90
2018-05-31T19:13:59.232Z,70.70
2018-05-31T19:16:26.799Z,70.60
2018-05-31T19:19:00.074Z,70.50
2018-05-31T19:21:27.530Z,70.40
2018-05-31T19:23:54.996Z,70.40
2018-05-31T19:26:22.434Z,70.60
2018-05-31T19:28:50.763Z,70.50
2018-05-31T19:31:18.325Z,70.40
2018-05-31T19:33:46.520Z,69.90
2018-05-31T19:36:19.705Z,69.70
2018-05-31T19:38:47.149Z,70.00
2018-05-31T19:41:14.634Z,70.00
2018-05-31T19:43:47.902Z,70.70
2018-05-31T19:46:15.375Z,70.90
2018-05-31T19:48:42.854Z,70.80
2018-05-31T19:51:10.333Z,70.90
2018-05-31T19:53:43.412Z,71.00
2018-05-31T19:56:10.873Z,71.10
2018-05-31T19:58:43.922Z,71.30
2018-05-31T20:01:17.078Z,71.40
2018-05-31T20:03:44.532Z,71.40
2018-05-31T20:06:12.803Z,71.00
2018-05-31T20:08:40.265Z,71.00
2018-05-31T20:11:07.735Z,70.90
2018-05-31T20:13:35.187Z,71.00
2018-05-31T20:16:02.651Z,71.00
2018-05-31T20:18:30.125Z,70.90
2018-05-31T20:20:57.818Z,71.10
2018-05-31T20:23:26.146Z,71.20
2018-05-31T20:25:53.588Z,71.20
2018-05-31T20:28:21.047Z,71.20
2018-05-31T20:30:48.552Z,71.30
2018-05-31T20:33:15.998Z,71.60
2018-05-31T20:35:43.442Z,72.20
2018-05-31T20:38:10.910Z,72.80
2018-05-31T20:40:38.389Z,72.50
2018-05-31T20:43:05.838Z,72.70
2018-05-31T20:45:33.302Z,72.60
2018-05-31T20:48:00.776Z,72.30
2018-05-31T20:50:29.046Z,72.10
2018-05-31T20:52:56.495Z,71.90
2018-05-31T20:55:23.962Z,71.90
2018-05-31T20:57:51.416Z,71.60
2018-05-31T21:00:18.865Z,71.60
2018-05-31T21:02:46.368Z,71.60
2018-05-31T21:05:14.624Z,71.60
2018-05-31T21:07:42.086Z,71.40
2018-05-31T21:10:09.529Z,71.90
2018-05-31T21:12:37.011Z,71.80
2018-05-31T21:15:04.483Z,72.00
2018-05-31T21:17:31.962Z,72.10
2018-05-31T21:19:59.527Z,72.30
2018-05-31T21:22:26.970Z,72.20
2018-05-31T21:24:54.445Z,72.60
2018-05-31T21:27:21.900Z,73.30
2018-05-31T21:29:49.367Z,73.20
2018-05-31T21:32:16.937Z,73.50
2018-05-31T21:34:44.384Z,73.30
2018-05-31T21:37:11.848Z,73.20
2018-05-31T21:39:39.311Z,73.30
2018-05-31T21:42:06.767Z,75.40
2018-05-31T21:44:34.225Z,76.40
2018-05-31T21:47:01.690Z,77.10
2018-05-31T21:49:29.173Z,76.80
2018-05-31T21:51:56.650Z,70.90
2018-05-31T21:54:24.087Z,71.60
2018-05-31T21:56:51.563Z,74.00
2018-05-31T21:59:19.021Z,74.50
2018-05-31T22:01:46.588Z,75.70
2018-05-31T22:04:14.061Z,76.80
2018-05-31T22:06:41.526Z,75.90
2018-05-31T22:09:08.975Z,76.50
2018-05-31T22:11:36.495Z,76.20
2018-05-31T22:14:03.917Z,77.60
2018-05-31T22:16:31.382Z,77.10
2018-05-31T22:18:58.828Z,75.80
2018-05-31T22:21:26.279Z,76.30
2018-05-31T22:23:53.745Z,76.10
2018-05-31T22:26:21.206Z,76.70
2018-05-31T22:28:49.046Z,77.20
2018-05-31T22:31:16.506Z,78.40
2018-05-31T22:33:43.950Z,80.70
2018-05-31T22:36:12.202Z,81.00
2018-05-31T22:38:39.754Z,80.90
2018-05-31T22:41:07.215Z,80.40
2018-05-31T22:43:34.667Z,81.40
2018-05-31T22:46:02.191Z,79.60
2018-05-31T22:48:29.706Z,79.70
2018-05-31T22:50:57.150Z,79.50
2018-05-31T22:53:24.643Z,78.70
2018-05-31T22:55:52.083Z,78.80
2018-05-31T22:58:19.562Z,78.80
2018-05-31T23:00:47.121Z,79.20
2018-05-31T23:03:14.675Z,79.30
2018-05-31T23:05:42.149Z,79.40
2018-05-31T23:08:09.716Z,80.00
2018-05-31T23:10:37.167Z,80.10
2018-05-31T23:13:04.642Z,80.20
2018-05-31T23:15:32.102Z,79.70
2018-05-31T23:17:59.589Z,79.90
2018-05-31T23:20:27.055Z,79.50
2018-05-31T23:22:54.493Z,79.40
2018-05-31T23:25:21.946Z,78.90
2018-05-31T23:27:49.414Z,78.80
2018-05-31T23:30:16.855Z,79.50
2018-05-31T23:32:44.322Z,79.60
2018-05-31T23:35:11.788Z,79.00
2018-05-31T23:37:39.256Z,79.30
2018-05-31T23:40:06.727Z,79.40
2018-05-31T23:42:34.167Z,79.30
2018-05-31T23:45:01.662Z,79.80
2018-05-31T23:47:29.122Z,79.30
2018-05-31T23:49:56.564Z,79.10
2018-05-31T23:52:24.047Z,79.70
2018-05-31T23:55:01.401Z,79.50
2018-05-31T23:57:28.841Z,78.50
2018-05-31T23:59:57.049Z,79.00
